Time;durP1;ratioP1;P1;durP2;ratioP2;P2;SDS_P1;SDS_P2;PMS_P1;PMS_P2;Temp;Humidity;BMP_temperature;BMP_pressure;BME280_temperature;BME280_humidity;BME280_pressure;Samples;Min_cycle;Max_cycle;Signal;HPM_P1;HPM_P2
2021/03/18 00:01:39;;;;;;;1.45;0.88;;;;;;;0.14;100.00;99799.72;1788171;79;21522;-56
2021/03/18 00:04:40;;;;;;;0.85;0.33;;;;;;;0.15;100.00;99794.66;1740026;81;21123;-56
2021/03/18 00:07:42;;;;;;;3.65;1.55;;;;;;;0.18;100.00;99800.10;1760310;80;21158;-55
2021/03/18 00:10:44;;;;;;;0.37;0.37;;;;;;;0.19;100.00;99799.05;1752590;80;21440;-55
2021/03/18 00:13:46;;;;;;;0.10;0.10;;;;;;;0.20;100.00;99798.02;1743086;80;21117;-55
2021/03/18 00:16:47;;;;;;;0.10;0.10;;;;;;;0.19;100.00;99795.83;1764169;80;21193;-55
2021/03/18 00:19:48;;;;;;;0.05;0.05;;;;;;;0.19;100.00;99793.14;1772246;80;21282;-55
2021/03/18 00:22:50;;;;;;;0.80;0.57;;;;;;;0.19;100.00;99797.70;1769326;80;21125;-55
2021/03/18 00:25:50;;;;;;;0.68;0.57;;;;;;;0.19;100.00;99801.73;1766733;80;21099;-55
2021/03/18 00:28:50;;;;;;;0.98;0.50;;;;;;;0.19;100.00;99803.08;1769264;81;21577;-54
2021/03/18 00:31:51;;;;;;;0.25;0.25;;;;;;;0.19;100.00;99801.73;1760613;80;21154;-54
2021/03/18 00:34:51;;;;;;;0.30;0.30;;;;;;;0.19;100.00;99797.70;1744994;81;21749;-55
2021/03/18 00:37:53;;;;;;;0.57;0.57;;;;;;;0.21;100.00;99800.45;1777305;79;21177;-55
2021/03/18 00:40:58;;;;;;;0.25;0.25;;;;;;;0.22;100.00;99799.92;1803537;79;21146;-55
2021/03/18 00:43:59;;;;;;;0.93;0.90;;;;;;;0.22;100.00;99799.92;1786681;79;21132;-55
2021/03/18 00:47:02;;;;;;;0.10;0.10;;;;;;;0.21;100.00;99799.11;1795723;78;21562;-55
2021/03/18 00:50:02;;;;;;;1.17;0.62;;;;;;;0.23;100.00;99799.42;1763715;81;21213;-55
2021/03/18 00:53:03;;;;;;;0.13;0.13;;;;;;;0.23;100.00;99804.27;1791640;80;21122;-55
2021/03/18 00:56:04;;;;;;;0.50;0.50;;;;;;;0.25;100.00;99798.66;1789415;80;21131;-55
2021/03/18 00:59:06;;;;;;;0.40;0.40;;;;;;;0.24;100.00;99805.90;1782350;79;21434;-55
2021/03/18 01:02:08;;;;;;;0.25;0.25;;;;;;;0.24;100.00;99805.90;1770344;79;21174;-55
2021/03/18 01:05:16;;;;;;;0.65;0.65;;;;;;;0.24;100.00;99804.55;1794575;79;20999;-54
2021/03/18 01:08:18;;;;;;;0.75;0.57;;;;;;;0.24;100.00;99802.39;1760220;81;21171;-55
2021/03/18 01:11:22;;;;;;;0.00;0.00;;;;;;;0.23;100.00;99792.18;1764320;79;21465;-55
2021/03/18 01:14:23;;;;;;;0.15;0.15;;;;;;;0.22;100.00;99797.23;1789472;78;21557;-55
2021/03/18 01:17:23;;;;;;;2.35;2.25;;;;;;;0.21;100.00;99798.30;1794960;79;21166;-55
2021/03/18 01:20:23;;;;;;;0.37;0.37;;;;;;;0.19;100.00;99799.86;1777487;79;21138;-55
2021/03/18 01:23:23;;;;;;;0.47;0.42;;;;;;;0.20;100.00;99800.70;1791520;80;21214;-55
2021/03/18 01:26:24;;;;;;;0.17;0.17;;;;;;;0.19;100.00;99801.20;1815358;78;21107;-55
2021/03/18 01:29:25;;;;;;;0.65;0.62;;;;;;;0.21;100.00;99806.36;1760227;81;21177;-55
2021/03/18 01:32:25;;;;;;;4.17;1.60;;;;;;;0.19;100.00;99805.77;1794100;78;21193;-55
2021/03/18 01:35:28;;;;;;;1.20;1.20;;;;;;;0.18;100.00;99800.10;1798493;78;21165;-54
2021/03/18 01:38:30;;;;;;;0.20;0.20;;;;;;;0.18;100.00;99801.45;1788875;78;21104;-54
2021/03/18 01:41:34;;;;;;;0.78;0.47;;;;;;;0.18;100.00;99808.16;1793038;78;21119;-55
2021/03/18 01:44:34;;;;;;;0.65;0.65;;;;;;;0.17;100.00;99809.20;1787961;80;21605;-55
2021/03/18 01:47:34;;;;;;;4.33;1.15;;;;;;;0.17;100.00;99810.53;1769105;79;21165;-54
2021/03/18 01:50:36;;;;;;;0.17;0.17;;;;;;;0.16;100.00;99806.22;1765975;81;21122;-57
2021/03/18 01:53:36;;;;;;;0.30;0.30;;;;;;;0.17;100.00;99814.56;1799838;78;21146;-57
2021/03/18 01:56:37;;;;;;;8.60;1.05;;;;;;;0.18;100.00;99810.33;1809732;79;21150;-57
2021/03/18 01:59:37;;;;;;;0.80;0.80;;;;;;;0.18;100.00;99813.01;1805052;79;21144;-57
2021/03/18 02:02:39;;;;;;;2.17;0.88;;;;;;;0.19;100.00;99811.95;1816243;78;21170;-57
2021/03/18 02:05:40;;;;;;;0.47;0.47;;;;;;;0.20;100.00;99812.80;1814185;78;21157;-57
2021/03/18 02:08:41;;;;;;;1.90;0.53;;;;;;;0.20;100.00;99810.11;1785290;78;21388;-57
2021/03/18 02:11:42;;;;;;;0.30;0.30;;;;;;;0.20;100.00;99804.73;1787850;78;21120;-57
2021/03/18 02:14:43;;;;;;;0.47;0.47;;;;;;;0.19;100.00;99808.45;1760637;81;21613;-56
2021/03/18 02:18:03;;;;;;;0.40;0.40;;;;;;;0.21;100.00;99811.73;1818313;78;21476;-56
2021/03/18 02:21:45;;;;;;;0.95;0.57;;;;;;;0.21;100.00;99809.05;1825861;78;21454;-56
2021/03/18 02:25:21;;;;;;;0.55;0.55;;;;;;;0.21;100.00;99811.73;1788267;78;21161;-56
2021/03/18 02:29:08;;;;;;;0.40;0.40;;;;;;;0.21;100.00;99807.70;1777435;78;21402;-57
2021/03/18 02:33:02;;;;;;;0.50;0.50;;;;;;;0.23;100.00;99806.14;1777277;79;22008;-57
2021/03/18 02:36:05;;;;;;;0.60;0.60;;;;;;;0.22;100.00;99813.36;1774799;79;21145;-56
2021/03/18 02:39:09;;;;;;;;;;;;;;;0.23;100.00;99818.23;1766417;81;20995;-56
2021/03/18 02:42:12;;;;;;;0.78;0.55;;;;;;;0.20;100.00;99810.92;1768387;79;20322;-56
2021/03/18 02:45:14;;;;;;;1.47;1.45;;;;;;;0.20;100.00;99812.80;1750515;79;21114;-56
2021/03/18 02:48:19;;;;;;;0.57;0.55;;;;;;;0.17;100.00;99813.23;1743835;81;21474;-56
2021/03/18 02:51:24;;;;;;;0.50;0.35;;;;;;;0.16;100.00;99812.41;1771146;80;21169;-56
2021/03/18 02:54:24;;;;;;;0.85;0.53;;;;;;;0.15;100.00;99815.34;1771974;80;21778;-56
2021/03/18 02:57:25;;;;;;;0.85;0.85;;;;;;;0.14;100.00;99818.53;1765494;79;21129;-56
2021/03/18 03:00:27;;;;;;;0.75;0.75;;;;;;;0.13;100.00;99821.46;1741160;79;21620;-56
2021/03/18 03:03:28;;;;;;;0.30;0.30;;;;;;;0.13;100.00;99821.46;1734637;82;21203;-54
2021/03/18 03:06:28;;;;;;;0.13;0.13;;;;;;;0.12;100.00;99827.33;1743931;81;21462;-54
2021/03/18 03:09:29;;;;;;;0.30;0.30;;;;;;;0.12;100.00;99826.52;1767509;81;21188;-54
2021/03/18 03:12:32;;;;;;;0.40;0.40;;;;;;;0.12;100.00;99829.20;1744056;79;21146;-53
2021/03/18 03:15:35;;;;;;;3.52;2.08;;;;;;;0.13;100.00;99834.89;1742162;79;21130;-54
2021/03/18 03:18:37;;;;;;;0.62;0.62;;;;;;;0.12;100.00;99835.92;1767086;81;21152;-53
2021/03/18 03:21:37;;;;;;;2.08;1.98;;;;;;;0.11;100.00;99841.02;1767564;79;21157;-53
2021/03/18 03:24:40;;;;;;;1.27;1.17;;;;;;;0.11;100.00;99841.02;1768259;79;21138;-53
2021/03/18 03:27:40;;;;;;;0.23;0.23;;;;;;;0.09;100.00;99839.06;1716133;82;21703;-53
2021/03/18 03:30:41;;;;;;;0.65;0.65;;;;;;;0.10;100.00;99839.35;1744933;79;21632;-54
2021/03/18 03:33:41;;;;;;;0.50;0.50;;;;;;;0.10;100.00;99843.38;1753528;79;21446;-54
2021/03/18 03:36:41;;;;;;;1.40;1.30;;;;;;;0.11;100.00;99847.73;1769131;79;21137;-53
2021/03/18 03:39:43;;;;;;;3.17;2.20;;;;;;;0.13;100.00;99851.02;1765411;81;21572;-53
2021/03/18 03:42:44;;;;;;;1.37;1.27;;;;;;;0.14;100.00;99852.64;1766168;79;21793;-53
2021/03/18 03:45:44;;;;;;;0.28;0.28;;;;;;;0.14;100.00;99850.77;1786798;79;21592;-54
2021/03/18 03:48:45;;;;;;;1.10;1.10;;;;;;;0.16;100.00;99855.93;1765531;79;21154;-53
2021/03/18 03:51:59;;;;;;;0.70;0.70;;;;;;;0.17;100.00;99853.03;1763631;81;21572;-53
2021/03/18 03:55:35;;;;;;;1.35;1.25;;;;;;;0.18;100.00;99851.16;1776959;79;21133;-53
2021/03/18 03:59:02;;;;;;;0.72;0.68;;;;;;;0.20;100.00;99861.98;1763543;81;21430;-53
2021/03/18 04:02:04;;;;;;;0.75;0.75;;;;;;;0.21;100.00;99862.79;1780492;79;21114;-54
2021/03/18 04:05:04;;;;;;;1.07;0.93;;;;;;;0.22;100.00;99860.39;1785744;80;21118;-53
2021/03/18 04:08:07;;;;;;;1.65;1.47;;;;;;;0.23;100.00;99855.86;1755392;80;21150;-53
2021/03/18 04:11:08;;;;;;;1.15;1.07;;;;;;;0.23;100.00;99866.08;1784530;80;21569;-53
2021/03/18 04:14:10;;;;;;;0.50;0.50;;;;;;;0.25;100.00;99866.67;1787973;80;21427;-53
2021/03/18 04:17:14;;;;;;;0.10;0.10;;;;;;;0.29;100.00;99880.47;1786699;78;21442;-53
2021/03/18 04:20:18;;;;;;;3.25;1.12;;;;;;;0.30;100.00;99878.91;1786912;78;21154;-53
2021/03/18 04:23:18;;;;;;;0.62;0.62;;;;;;;0.30;100.00;99876.22;1764290;80;21173;-53
2021/03/18 04:26:19;;;;;;;1.05;0.98;;;;;;;0.31;100.00;99874.35;1785345;78;21170;-53
2021/03/18 04:29:20;;;;;;;0.62;0.62;;;;;;;0.32;100.00;99871.45;1746140;81;21167;-53
2021/03/18 04:32:20;;;;;;;0.45;0.45;;;;;;;0.34;100.00;99873.89;1769719;79;21115;-53
2021/03/18 04:35:22;;;;;;;0.28;0.28;;;;;;;0.34;100.00;99881.42;1810483;79;21554;-53
2021/03/18 04:38:22;;;;;;;0.98;0.85;;;;;;;0.35;100.00;99884.42;1769679;79;21522;-53
2021/03/18 04:41:23;;;;;;;0.62;0.62;;;;;;;0.35;100.00;99875.02;1784341;79;21139;-54
2021/03/18 04:44:23;;;;;;;0.65;0.65;;;;;;;0.36;100.00;99888.75;1779195;80;21106;-53
2021/03/18 04:47:25;;;;;;;1.65;1.42;;;;;;;0.36;100.00;99890.62;1737293;80;21672;-53
2021/03/18 04:50:27;;;;;;;0.10;0.10;;;;;;;0.34;100.00;99897.55;1750697;81;21569;-53
2021/03/18 04:53:28;;;;;;;0.95;0.95;;;;;;;0.32;100.00;99896.98;1757556;80;21613;-53
2021/03/18 04:56:29;;;;;;;3.83;0.68;;;;;;;0.33;100.00;99900.48;1757799;79;21113;-53
2021/03/18 04:59:29;;;;;;;0.42;0.42;;;;;;;0.33;100.00;99909.36;1731438;81;21154;-53
2021/03/18 05:02:31;;;;;;;0.40;0.40;;;;;;;0.33;100.00;99913.92;1761598;79;21153;-50
2021/03/18 05:05:34;;;;;;;1.75;1.20;;;;;;;0.34;100.00;99917.70;1774104;80;21122;-50
2021/03/18 05:08:35;;;;;;;0.37;0.37;;;;;;;0.34;100.00;99919.05;1779486;80;21174;-50
2021/03/18 05:11:35;;;;;;;2.50;1.50;;;;;;;0.36;100.00;99919.66;1759125;80;20987;-51
2021/03/18 05:14:38;;;;;;;0.72;0.72;;;;;;;0.37;100.00;99926.69;1748401;80;21189;-50
2021/03/18 05:17:38;;;;;;;0.90;0.68;;;;;;;0.39;100.00;99927.26;1731460;81;21174;-50
2021/03/18 05:20:39;;;;;;;0.30;0.30;;;;;;;0.42;100.00;99933.55;1751536;80;21541;-49
2021/03/18 05:23:40;;;;;;;1.50;1.10;;;;;;;0.46;100.00;99935.25;1746267;82;21186;-49
2021/03/18 05:26:40;;;;;;;0.68;0.55;;;;;;;0.48;100.00;99936.39;1760621;80;21147;-50
2021/03/18 05:29:41;;;;;;;0.85;0.85;;;;;;;0.50;100.00;99938.33;1770997;80;21111;-50
2021/03/18 05:32:42;;;;;;;0.80;0.80;;;;;;;0.56;100.00;99940.09;1731968;80;21123;-49
2021/03/18 05:35:48;;;;;;;1.10;0.68;;;;;;;0.60;100.00;99941.30;1739084;80;21127;-50
2021/03/18 05:38:49;;;;;;;0.10;0.10;;;;;;;0.63;100.00;99943.53;1770133;80;21146;-49
2021/03/18 05:41:50;;;;;;;0.30;0.30;;;;;;;0.66;100.00;99951.14;1756818;80;21476;-51
2021/03/18 05:44:52;;;;;;;0.30;0.30;;;;;;;0.68;100.00;99946.36;1772544;80;21155;-50
2021/03/18 05:47:53;;;;;;;0.75;0.75;;;;;;;0.72;100.00;99950.75;1779255;80;21115;-49
2021/03/18 05:50:55;;;;;;;1.52;1.50;;;;;;;0.74;100.00;99958.06;1752726;80;21160;-49
2021/03/18 05:53:56;;;;;;;0.35;0.35;;;;;;;0.76;100.00;99959.48;1748885;82;21158;-52
2021/03/18 05:56:57;;;;;;;15.03;2.27;;;;;;;0.81;100.00;99951.55;1757499;80;21213;-50
2021/03/18 05:59:59;;;;;;;0.13;0.13;;;;;;;0.83;100.00;99963.44;1754370;80;21125;-51
2021/03/18 06:03:00;;;;;;;0.20;0.20;;;;;;;0.86;100.00;99958.41;1770303;80;21127;-51
2021/03/18 06:06:02;;;;;;;0.10;0.10;;;;;;;0.89;100.00;99959.02;1771658;80;21087;-51
2021/03/18 06:09:02;;;;;;;3.08;1.12;;;;;;;0.89;100.00;99962.55;1750233;80;21928;-53
2021/03/18 06:12:04;;;;;;;0.30;0.30;;;;;;;0.90;100.00;99966.05;1745035;81;21142;-51
2021/03/18 06:15:04;;;;;;;1.60;1.50;;;;;;;0.92;100.00;99972.84;1784334;80;21605;-51
2021/03/18 06:18:05;;;;;;;1.02;0.90;;;;;;;0.93;100.00;99974.48;1755530;80;21140;-51
2021/03/18 06:21:06;;;;;;;0.57;0.50;;;;;;;0.92;100.00;99978.76;1756145;80;21154;-50
2021/03/18 06:24:07;;;;;;;0.50;0.50;;;;;;;0.93;100.00;99973.66;1758238;80;21572;-50
2021/03/18 06:27:08;;;;;;;3.08;2.75;;;;;;;0.94;100.00;99977.98;1760685;80;21577;-52
2021/03/18 06:30:16;;;;;;;4.08;1.95;;;;;;;0.92;100.00;99980.10;1732435;81;21202;-54
2021/03/18 06:33:28;;;;;;;1.32;0.40;;;;;;;0.94;100.00;99990.94;1759653;80;21122;-54
2021/03/18 06:36:37;;;;;;;0.93;0.57;;;;;;;0.93;100.00;99977.70;1784345;80;21930;-54
2021/03/18 06:39:37;;;;;;;1.00;1.00;;;;;;;0.93;100.00;99977.70;1783895;79;21150;-54
2021/03/18 06:42:38;;;;;;;0.78;0.75;;;;;;;0.97;100.00;99982.93;1779074;80;21179;-54
2021/03/18 06:45:42;;;;;;;1.67;1.07;;;;;;;0.99;100.00;99987.03;1746575;80;21119;-53
2021/03/18 06:48:44;;;;;;;0.47;0.25;;;;;;;0.96;100.00;99985.30;1769438;81;21438;-53
2021/03/18 06:51:44;;;;;;;0.10;0.10;;;;;;;0.88;100.00;99982.94;1769796;79;21136;-53
2021/03/18 06:54:48;;;;;;;0.82;0.82;;;;;;;0.83;100.00;99983.08;1769369;79;21629;-52
2021/03/18 06:57:49;;;;;;;2.08;1.45;;;;;;;0.82;100.00;99986.84;1769326;80;21154;-52
2021/03/18 07:00:55;;;;;;;0.68;0.68;;;;;;;0.81;100.00;99983.83;1769357;79;21138;-52
2021/03/18 07:03:55;;;;;;;1.35;0.55;;;;;;;0.81;100.00;99987.86;1769273;81;21133;-52
2021/03/18 07:07:00;;;;;;;0.33;0.33;;;;;;;0.77;100.00;99977.28;1768422;81;21153;-52
2021/03/18 07:10:01;;;;;;;1.77;0.55;;;;;;;0.79;100.00;99983.27;1768922;81;21152;-53
2021/03/18 07:13:01;;;;;;;0.47;0.47;;;;;;;0.86;100.00;99991.22;1769271;81;21563;-52
2021/03/18 07:16:04;;;;;;;0.55;0.37;;;;;;;0.97;100.00;99991.00;1727373;81;21566;-52
2021/03/18 07:19:04;;;;;;;0.40;0.40;;;;;;;1.07;100.00;99993.97;1769434;81;21172;-52
2021/03/18 07:22:05;;;;;;;1.52;1.20;;;;;;;1.12;100.00;99986.55;1769326;81;21630;-51
2021/03/18 07:25:06;;;;;;;3.33;1.77;;;;;;;1.17;100.00;99991.54;1769232;81;21203;-52
2021/03/18 07:28:07;;;;;;;0.25;0.25;;;;;;;1.26;100.00;99988.83;1769194;81;21204;-51
2021/03/18 07:31:07;;;;;;;0.37;0.37;;;;;;;1.33;100.00;99989.24;1769310;81;21413;-51
2021/03/18 07:34:08;;;;;;;0.23;0.23;;;;;;;1.42;100.00;99990.03;1727179;81;21137;-51
2021/03/18 07:37:13;;;;;;;0.53;0.53;;;;;;;1.55;100.00;99989.53;1769076;81;21409;-50
2021/03/18 07:40:14;;;;;;;1.02;0.80;;;;;;;1.70;100.00;99983.17;1764549;81;21188;-51
2021/03/18 07:43:14;;;;;;;0.98;0.78;;;;;;;1.85;100.00;99985.41;1762381;81;21193;-48
2021/03/18 07:46:18;;;;;;;0.95;0.93;;;;;;;2.00;100.00;99984.95;1762400;81;21145;-48
2021/03/18 07:49:24;;;;;;;0.65;0.50;;;;;;;2.11;100.00;99982.27;1738308;81;21138;-48
2021/03/18 07:52:28;;;;;;;1.22;1.12;;;;;;;2.26;99.12;99979.08;1762701;81;21454;-48
2021/03/18 07:55:29;;;;;;;0.90;0.80;;;;;;;2.36;96.62;99983.34;1737885;81;21142;-48
2021/03/18 07:58:55;;;;;;;0.57;0.57;;;;;;;2.40;94.78;99985.06;1737603;81;21174;-48
2021/03/18 08:01:55;;;;;;;0.70;0.70;;;;;;;2.40;93.23;99982.36;1762810;81;21524;-49
2021/03/18 08:04:59;;;;;;;0.47;0.47;;;;;;;2.43;93.20;99989.16;1762387;81;21199;-47
2021/03/18 08:07:59;;;;;;;0.57;0.57;;;;;;;2.45;92.00;99983.81;1769743;79;21110;-48
2021/03/18 08:11:22;;;;;;;;;;;;;;;2.49;91.79;99981.45;1765384;79;21348;-48
2021/03/18 08:14:25;;;;;;;0.20;0.20;;;;;;;2.54;90.71;99988.30;1777168;79;20244;-48
2021/03/18 08:17:34;;;;;;;0.75;0.75;;;;;;;2.57;90.43;99987.31;1777020;79;21159;-48
2021/03/18 08:21:01;;;;;;;0.37;0.37;;;;;;;2.58;89.72;99975.45;1765488;79;21149;-48
2021/03/18 08:24:02;;;;;;;0.20;0.20;;;;;;;2.62;90.75;99987.11;1762454;79;21462;-47
2021/03/18 08:27:12;;;;;;;1.02;0.70;;;;;;;2.59;90.79;99981.13;1781505;79;21149;-48
2021/03/18 08:30:27;;;;;;;0.10;0.10;;;;;;;2.65;89.49;99982.61;1762990;80;21129;-48
2021/03/18 08:33:39;;;;;;;0.55;0.55;;;;;;;2.69;90.33;99984.56;1762700;81;21146;-48
2021/03/18 08:36:46;;;;;;;0.42;0.42;;;;;;;2.76;89.72;99984.44;1765924;80;21389;-48
2021/03/18 08:39:55;;;;;;;3.87;2.05;;;;;;;2.71;89.11;99984.34;1760551;79;21137;-47
2021/03/18 08:42:57;;;;;;;0.05;0.05;;;;;;;2.71;89.42;99982.45;1780682;79;21189;-47
2021/03/18 08:45:58;;;;;;;0.35;0.35;;;;;;;2.76;89.41;99977.69;1779450;79;22065;-48
2021/03/18 08:49:39;;;;;;;0.10;0.10;;;;;;;2.83;89.57;99989.70;1791763;80;21141;-48
2021/03/18 08:52:50;;;;;;;2.98;2.25;;;;;;;2.91;89.49;99980.69;1791657;80;21114;-48
2021/03/18 08:55:53;;;;;;;1.95;1.85;;;;;;;3.05;89.99;99989.33;1785392;80;21118;-48
2021/03/18 08:58:56;;;;;;;0.80;0.68;;;;;;;3.16;87.74;99988.45;1760718;80;21785;-48
2021/03/18 09:01:58;;;;;;;0.10;0.10;;;;;;;3.18;87.04;99990.38;1768032;80;21169;-48
2021/03/18 09:05:00;;;;;;;0.57;0.53;;;;;;;3.27;88.31;99983.26;1767096;79;21138;-49
2021/03/18 09:08:04;;;;;;;1.27;0.50;;;;;;;3.45;88.76;99987.08;1780086;80;21103;-48
2021/03/18 09:11:05;;;;;;;1.30;1.15;;;;;;;3.61;88.20;99997.09;1761847;79;21126;-48
2021/03/18 09:14:05;;;;;;;1.05;1.05;;;;;;;3.71;85.60;99996.45;1770228;80;21185;-49
2021/03/18 09:17:18;;;;;;;0.23;0.23;;;;;;;3.77;86.33;99999.51;1759872;80;21191;-48
2021/03/18 09:20:22;;;;;;;3.02;1.32;;;;;;;3.88;86.75;99999.97;1758483;81;21225;-47
2021/03/18 09:23:38;;;;;;;1.07;1.05;;;;;;;4.00;85.75;100000.41;1784514;79;21102;-48
2021/03/18 09:26:41;;;;;;;1.47;1.37;;;;;;;4.15;85.77;100002.52;1766985;79;21138;-47
2021/03/18 09:29:42;;;;;;;0.35;0.35;;;;;;;4.30;84.32;100007.64;1783034;80;21139;-47
2021/03/18 09:32:43;;;;;;;0.50;0.50;;;;;;;4.33;81.73;100001.41;1775567;80;21027;-48
2021/03/18 09:35:44;;;;;;;0.20;0.20;;;;;;;4.27;81.47;100001.34;1760205;80;21127;-47
2021/03/18 09:38:45;;;;;;;0.57;0.57;;;;;;;4.20;82.16;100004.76;1760721;80;21166;-48
2021/03/18 09:41:53;;;;;;;0.60;0.60;;;;;;;4.16;82.62;100002.28;1760522;80;21265;-48
2021/03/18 09:44:54;;;;;;;1.47;1.00;;;;;;;4.16;79.95;100012.29;1759797;81;21675;-48
2021/03/18 09:47:56;;;;;;;3.30;1.12;;;;;;;4.04;79.52;100008.31;1755176;80;21183;-48
2021/03/18 09:50:56;;;;;;;0.20;0.20;;;;;;;4.01;79.85;100007.47;1792900;78;21466;-48
2021/03/18 09:54:08;;;;;;;0.35;0.35;;;;;;;4.09;82.06;100006.50;1797711;78;21148;-47
2021/03/18 09:57:13;;;;;;;4.53;2.20;;;;;;;4.30;82.18;100010.34;1783585;80;21151;-47
2021/03/18 10:00:15;;;;;;;2.50;1.72;;;;;;;4.41;80.97;100006.42;1768380;79;21146;-47
2021/03/18 10:03:17;;;;;;;2.45;1.85;;;;;;;4.40;78.40;100012.38;1800338;79;21177;-47
2021/03/18 10:06:17;;;;;;;0.45;0.45;;;;;;;4.34;77.79;100012.54;1790154;79;21123;-47
2021/03/18 10:09:36;;;;;;;0.25;0.20;;;;;;;4.36;79.03;100022.05;1777323;79;21119;-47
2021/03/18 10:12:37;;;;;;;1.22;0.70;;;;;;;4.39;78.66;100017.48;1766855;81;21126;-48
2021/03/18 10:15:39;;;;;;;0.30;0.30;;;;;;;4.44;79.20;100023.50;1766741;81;21296;-48
2021/03/18 10:18:42;;;;;;;1.10;0.88;;;;;;;4.51;78.85;100018.73;1743188;79;21157;-48
2021/03/18 10:21:44;;;;;;;;;;;;;;;4.60;78.67;100023.16;1786597;79;21170;-48
2021/03/18 10:24:44;;;;;;;0.45;0.45;;;;;;;4.66;78.02;100022.99;1793092;79;20253;-47
2021/03/18 10:27:50;;;;;;;0.50;0.50;;;;;;;4.67;77.47;100022.45;1768398;79;21901;-48
2021/03/18 10:30:52;;;;;;;1.25;1.15;;;;;;;4.62;77.60;100016.43;1786997;80;21127;-48
2021/03/18 10:33:53;;;;;;;1.57;1.30;;;;;;;4.63;78.78;100016.73;1787168;80;21206;-47
2021/03/18 10:36:55;;;;;;;1.62;0.93;;;;;;;4.72;78.01;100025.22;1815907;78;21158;-47
2021/03/18 10:40:24;;;;;;;1.10;1.00;;;;;;;4.80;78.45;100028.02;1819570;78;21114;-48
2021/03/18 10:43:34;;;;;;;0.37;0.20;;;;;;;4.89;77.63;100030.04;1792397;79;21134;-48
2021/03/18 10:46:38;;;;;;;1.57;0.53;;;;;;;4.91;78.29;100023.84;1797309;79;21109;-47
2021/03/18 10:49:39;;;;;;;3.30;1.75;;;;;;;4.95;77.74;100025.53;1771507;80;21174;-48
2021/03/18 10:52:40;;;;;;;0.95;0.95;;;;;;;4.94;76.59;100031.45;1771895;79;21726;-48
2021/03/18 10:55:47;;;;;;;1.25;0.98;;;;;;;5.01;77.36;100029.11;1771565;80;21111;-48
2021/03/18 10:58:48;;;;;;;1.95;1.52;;;;;;;5.00;74.76;100026.94;1771914;79;21168;-48
2021/03/18 11:01:50;;;;;;;0.20;0.20;;;;;;;4.90;75.25;100029.53;1777761;79;21134;-47
2021/03/18 11:05:03;;;;;;;0.37;0.37;;;;;;;4.91;76.13;100031.97;1800954;79;21076;-48
2021/03/18 11:08:04;;;;;;;0.20;0.20;;;;;;;4.87;74.94;100035.42;1802996;79;21190;-48
2021/03/18 11:11:08;;;;;;;0.40;0.40;;;;;;;4.81;75.64;100033.20;1792790;78;21564;-47
2021/03/18 11:14:18;;;;;;;0.98;0.75;;;;;;;4.74;73.96;100029.85;1763663;81;21179;-48
2021/03/18 11:17:19;;;;;;;0.45;0.45;;;;;;;4.69;75.01;100027.89;1816755;78;21146;-48
2021/03/18 11:20:22;;;;;;;0.47;0.45;;;;;;;4.78;75.01;100034.25;1763451;79;21549;-47
2021/03/18 11:23:25;;;;;;;0.53;0.53;;;;;;;4.78;74.69;100027.48;1770280;79;21169;-48
2021/03/18 11:26:31;;;;;;;0.30;0.30;;;;;;;4.77;74.77;100025.83;1788085;79;21478;-47
2021/03/18 11:29:41;;;;;;;0.37;0.37;;;;;;;4.88;74.84;100022.19;1823731;78;21138;-48
2021/03/18 11:32:42;;;;;;;1.32;0.82;;;;;;;4.88;72.81;100024.89;1823146;78;21212;-47
2021/03/18 11:35:42;;;;;;;0.20;0.20;;;;;;;4.79;73.84;100020.98;1787586;78;21134;-47
2021/03/18 11:38:44;;;;;;;0.85;0.85;;;;;;;4.78;74.41;100015.30;1773556;79;21412;-48
2021/03/18 11:41:45;;;;;;;1.57;1.47;;;;;;;4.74;74.79;100019.84;1790318;79;21126;-48
2021/03/18 11:44:46;;;;;;;5.17;1.32;;;;;;;4.76;75.40;100021.49;1768054;81;21134;-47
2021/03/18 11:47:46;;;;;;;4.47;1.90;;;;;;;4.83;75.20;100020.77;1768107;81;21596;-47
2021/03/18 11:50:46;;;;;;;0.42;0.42;;;;;;;4.92;74.70;100020.08;1759236;81;21210;-48
2021/03/18 11:53:49;;;;;;;3.25;1.00;;;;;;;5.02;73.53;100020.74;1738062;82;21159;-48
2021/03/18 11:56:50;;;;;;;1.90;1.00;;;;;;;5.02;72.90;100016.67;1756348;81;21465;-48
2021/03/18 11:59:51;;;;;;;1.45;0.98;;;;;;;5.04;73.79;100025.34;1746207;81;21274;-47
2021/03/18 12:02:53;;;;;;;0.90;0.90;;;;;;;5.08;73.19;100032.44;1746412;81;21197;-48
2021/03/18 12:05:56;;;;;;;0.93;0.93;;;;;;;5.06;72.33;100019.14;1741458;80;21726;-47
2021/03/18 12:08:56;;;;;;;3.10;1.27;;;;;;;5.07;73.21;100022.16;1753681;81;21146;-48
2021/03/18 12:11:57;;;;;;;0.40;0.40;;;;;;;5.09;74.05;100027.30;1767012;81;21134;-47
2021/03/18 12:14:57;;;;;;;1.00;0.85;;;;;;;5.17;73.04;100024.97;1766304;81;21165;-47
2021/03/18 12:17:57;;;;;;;2.08;1.98;;;;;;;5.22;72.62;100024.21;1764457;81;21204;-47
2021/03/18 12:20:58;;;;;;;0.70;0.70;;;;;;;5.24;71.42;100033.42;1767866;81;21441;-48
2021/03/18 12:23:59;;;;;;;0.42;0.42;;;;;;;5.21;71.16;100027.16;1762947;81;21411;-48
2021/03/18 12:27:01;;;;;;;0.25;0.25;;;;;;;5.16;72.27;100026.03;1748172;81;21114;-47
2021/03/18 12:30:01;;;;;;;0.70;0.28;;;;;;;5.16;72.55;100023.31;1741684;81;21137;-47
2021/03/18 12:33:02;;;;;;;0.80;0.80;;;;;;;5.20;71.29;100025.54;1737712;82;21612;-47
2021/03/18 12:36:02;;;;;;;0.72;0.72;;;;;;;5.10;71.91;100033.02;1745436;81;21147;-47
2021/03/18 12:39:03;;;;;;;1.12;1.00;;;;;;;5.02;73.57;100028.02;1738003;81;21176;-48
2021/03/18 12:42:03;;;;;;;0.98;0.98;;;;;;;4.95;71.93;100029.05;1768143;81;21191;-48
2021/03/18 12:45:04;;;;;;;1.17;0.90;;;;;;;4.88;72.46;100030.31;1781919;79;21154;-47
2021/03/18 12:48:06;;;;;;;2.05;0.93;;;;;;;4.80;73.19;100023.45;1750644;81;21691;-47
2021/03/18 12:51:06;;;;;;;1.27;1.25;;;;;;;4.87;74.37;100025.95;1750480;81;21178;-48
2021/03/18 12:54:07;;;;;;;0.90;0.88;;;;;;;4.90;74.66;100030.34;1750835;81;21119;-47
2021/03/18 12:57:07;;;;;;;0.35;0.35;;;;;;;4.94;73.89;100024.69;1780746;80;21131;-48
2021/03/18 13:00:10;;;;;;;0.20;0.20;;;;;;;4.96;74.29;100023.91;1750977;81;21222;-47
2021/03/18 13:03:11;;;;;;;4.37;1.90;;;;;;;5.03;75.80;100014.23;1750874;81;21162;-47
2021/03/18 13:06:12;;;;;;;2.05;1.87;;;;;;;5.08;76.42;100010.78;1750910;81;21131;-47
2021/03/18 13:09:13;;;;;;;0.50;0.45;;;;;;;5.12;76.11;100010.02;1751006;81;21181;-47
2021/03/18 13:12:16;;;;;;;1.20;1.17;;;;;;;5.15;75.47;100019.53;1754868;80;21135;-47
2021/03/18 13:15:19;;;;;;;0.55;0.55;;;;;;;5.03;74.63;100016.14;1751298;81;21503;-47
2021/03/18 13:18:19;;;;;;;1.72;1.62;;;;;;;4.93;75.13;100029.02;1761141;80;21158;-47
2021/03/18 13:21:20;;;;;;;0.57;0.57;;;;;;;4.89;74.67;100021.92;1750565;81;21175;-47
2021/03/18 13:24:20;;;;;;;1.25;0.98;;;;;;;4.86;75.33;100022.97;1763405;80;21115;-47
2021/03/18 13:27:21;;;;;;;1.27;0.90;;;;;;;4.86;76.07;100027.03;1771627;80;21142;-47
2021/03/18 13:30:25;;;;;;;1.20;0.78;;;;;;;4.85;75.59;100028.11;1771905;79;21103;-47
2021/03/18 13:33:27;;;;;;;2.02;1.90;;;;;;;4.82;74.68;100023.18;1771861;80;21213;-47
2021/03/18 13:36:28;;;;;;;0.50;0.50;;;;;;;4.85;72.96;100024.87;1769800;79;21123;-47
2021/03/18 13:39:28;;;;;;;0.90;0.90;;;;;;;4.91;72.88;100023.03;1771742;80;21154;-48
2021/03/18 13:42:32;;;;;;;;;;;;;;;5.04;72.38;100018.58;1768325;80;21406;-48
2021/03/18 13:45:33;;;;;;;0.82;0.55;;;;;;;5.21;72.03;100023.10;1765593;81;20285;-47
2021/03/18 13:48:33;;;;;;;0.93;0.93;;;;;;;5.34;70.69;100017.27;1780190;80;21194;-48
2021/03/18 13:51:35;;;;;;;2.02;0.80;;;;;;;5.41;70.64;100020.59;1766034;81;21128;-48
2021/03/18 13:54:36;;;;;;;0.70;0.70;;;;;;;5.38;68.48;100019.77;1780279;80;21123;-48
2021/03/18 13:57:36;;;;;;;1.67;1.45;;;;;;;5.29;69.30;100018.06;1759210;81;21135;-47
2021/03/18 14:00:37;;;;;;;0.25;0.25;;;;;;;5.18;69.86;100022.53;1790445;80;21190;-47
2021/03/18 14:03:38;;;;;;;0.70;0.70;;;;;;;5.17;69.87;100026.33;1790840;80;21205;-48
2021/03/18 14:06:39;;;;;;;0.82;0.82;;;;;;;5.11;71.23;100019.74;1751958;81;21187;-47
2021/03/18 14:09:39;;;;;;;1.22;1.17;;;;;;;5.06;72.70;100022.39;1775241;80;21523;-48
2021/03/18 14:12:42;;;;;;;0.93;0.33;;;;;;;5.02;72.14;100022.61;1772370;80;21466;-48
2021/03/18 14:15:44;;;;;;;0.78;0.78;;;;;;;5.02;72.62;100018.03;1769346;79;21149;-48
2021/03/18 14:18:47;;;;;;;0.62;0.62;;;;;;;5.06;72.82;100022.39;1768694;79;21172;-48
2021/03/18 14:21:48;;;;;;;1.80;0.88;;;;;;;5.09;73.40;100022.69;1790586;80;21147;-48
2021/03/18 14:24:50;;;;;;;0.65;0.65;;;;;;;5.15;72.76;100028.47;1791272;79;21602;-44